メインページ
METAR-TAF:

METAR-TAF

空港 :

ヴォルゴグラード, ロシア

ヴォルゴグラード国際空港

緯度: 48-47N, 経度: 044-22E, 海抜: 145m

現時点の気象観測

当レポートは24分前の23:30(UTC)に作成
東/北東の風 14kt
気温 -13°C
湿度 92%
気圧 1014 hPa
視程: 4900m
高度400ftの雲は散在している
高度2100ftの千切れ雲あり, 積乱雲.
弱いにわか雪, 低い地吹雪

METAR: URWW 242330Z 07007MPS 4900 -SHSN DRSN SCT004 BKN021CB M13/M14 Q1014 R06/450240 TEMPO 1000 SHSN BLSN RMK OBST OBSC

時間: 02:54 (23:54 UTC)

予報

当レポートは55分前の22:59(UTC)に作成
予報は25日の 00時(UTC)から 25日の 09時(UTC)まで有効
東/北東の風 16kt、最大25ktの突風を伴う
視程: 3100m
高度1100ftの千切れ雲あり
高度2000ftの千切れ雲あり, 積乱雲.
弱いにわか雪, 高い地吹雪
25日の 00時(UTC)から 25日の 09時(UTC)まで一時的に
視程: 1000m
高度300ftの千切れ雲あり
高度2000ftの千切れ雲あり, 積乱雲.
にわか雪, 高い地吹雪

TAF: URWW 242259Z 2500/2509 06008G13MPS 3100 -SHSN BLSN BKN011 BKN020CB TEMPO 2500/2509 1000 SHSN BLSN BKN003 BKN020CB

4,000以上の空港の気象観測と天気予報(METAR報とTAF報)

利用可能な観測所は地図上に黄色い丸と赤い丸で示す。

丸の上にカーソルを重ねると観測所名を参照できる。

次にクリックすると気象観測と天気予報を参照できる。

マップの切り替え:黒色「×」印の緑ボタンをクリックして拡大、「-」印の緑ボタンをクリックして縮小、緑色の三角印をクリックして隣りの地図に切り替え


METAR-TAF: